Time,TemperatureF,DewpointF,PressureIn,WindDirection,WindDirectionDegrees,WindSpeedMPH,WindSpeedGustMPH,Humidity,HourlyPrecipIn,Conditions,Clouds,dailyrainin,SoftwareType,DateUTC
2013-01-06 00:00:00,64.2,60.3,30.18,ENE,71,2.0,6.0,87,0.00,,,0.00,meteohub,2013-01-06 05:00:00,
2013-01-06 00:02:00,64.2,60.3,30.18,ENE,71,2.0,6.0,87,0.00,,,0.00,meteohub,2013-01-06 05:02:00,
2013-01-06 00:03:00,64.2,60.3,30.18,ENE,70,3.0,6.0,87,0.00,,,0.00,meteohub,2013-01-06 05:03:00,
2013-01-06 00:06:00,64.2,60.3,30.18,ENE,67,2.0,8.0,87,0.00,,,0.00,meteohub,2013-01-06 05:06:00,
2013-01-06 00:12:00,64.2,60.3,30.18,ENE,67,2.0,8.0,87,0.00,,,0.00,meteohub,2013-01-06 05:12:00,
2013-01-06 00:18:00,64.0,60.1,30.18,NE,50,3.0,8.0,87,0.00,,,0.00,meteohub,2013-01-06 05:18:00,
2013-01-06 00:24:00,64.0,60.1,30.17,East,82,2.0,5.0,87,0.00,,,0.00,meteohub,2013-01-06 05:24:00,
2013-01-06 00:30:00,64.0,60.4,30.18,ENE,57,2.0,6.0,88,0.00,,,0.00,meteohub,2013-01-06 05:30:00,
2013-01-06 00:36:00,64.0,60.4,30.17,ENE,65,2.0,6.0,88,0.00,,,0.00,meteohub,2013-01-06 05:36:00,
2013-01-06 00:42:00,64.0,60.4,30.17,ENE,68,2.0,5.0,88,0.00,,,0.00,meteohub,2013-01-06 05:42:00,
2013-01-06 00:47:00,64.0,60.4,30.17,ENE,60,3.0,5.0,88,0.00,,,0.00,meteohub,2013-01-06 05:47:00,
2013-01-06 00:52:00,63.9,60.3,30.17,ENE,73,2.0,5.0,88,0.00,,,0.00,meteohub,2013-01-06 05:52:00,
2013-01-06 00:57:00,63.9,60.6,30.17,ENE,69,1.0,5.0,89,0.00,,,0.00,meteohub,2013-01-06 05:57:00,
2013-01-06 01:02:00,63.9,60.6,30.16,ENE,71,3.0,5.0,89,0.00,,,0.00,meteohub,2013-01-06 06:02:00,
2013-01-06 01:07:00,63.9,60.6,30.16,ENE,69,0.0,4.0,89,0.00,,,0.00,meteohub,2013-01-06 06:07:00,
2013-01-06 01:12:00,63.9,60.6,30.16,ENE,75,3.0,4.0,89,0.00,,,0.00,meteohub,2013-01-06 06:12:00,
2013-01-06 01:17:00,63.7,60.6,30.16,ENE,74,0.0,4.0,90,0.00,,,0.00,meteohub,2013-01-06 06:17:00,
2013-01-06 01:22:00,63.7,60.6,30.16,ENE,74,1.0,4.0,90,0.00,,,0.00,meteohub,2013-01-06 06:22:00,
2013-01-06 01:27:00,63.7,60.6,30.16,ENE,74,1.0,4.0,90,0.00,,,0.00,meteohub,2013-01-06 06:27:00,
2013-01-06 01:32:00,63.5,60.4,30.16,ENE,59,0.0,4.0,90,0.00,,,0.00,meteohub,2013-01-06 06:32:00,
2013-01-06 01:37:00,63.5,60.8,30.16,ENE,63,0.0,4.0,91,0.00,,,0.00,meteohub,2013-01-06 06:37:00,
2013-01-06 01:42:00,63.3,60.3,30.16,ENE,68,1.0,4.0,90,0.00,,,0.00,meteohub,2013-01-06 06:42:00,
2013-01-06 01:47:00,63.3,60.3,30.16,ENE,68,2.0,3.0,90,0.00,,,0.00,meteohub,2013-01-06 06:47:00,
2013-01-06 01:52:00,63.1,60.4,30.16,ENE,68,1.0,3.0,91,0.00,,,0.00,meteohub,2013-01-06 06:52:00,
2013-01-06 01:57:00,63.1,60.4,30.16,ENE,68,1.0,3.0,91,0.00,,,0.00,meteohub,2013-01-06 06:57:00,
2013-01-06 02:02:00,63.0,60.3,30.16,East,82,2.0,3.0,91,0.00,,,0.00,meteohub,2013-01-06 07:02:00,
2013-01-06 02:07:00,63.0,60.3,30.16,East,82,1.0,5.0,91,0.00,,,0.00,meteohub,2013-01-06 07:07:00,
2013-01-06 02:12:00,62.8,60.4,30.16,East,82,1.0,5.0,92,0.00,,,0.00,meteohub,2013-01-06 07:12:00,
2013-01-06 02:17:00,62.8,60.4,30.16,East,82,2.0,5.0,92,0.00,,,0.00,meteohub,2013-01-06 07:17:00,
2013-01-06 02:22:00,62.6,60.3,30.16,East,82,1.0,3.0,92,0.00,,,0.00,meteohub,2013-01-06 07:22:00,
2013-01-06 02:27:00,62.6,60.3,30.16,ENE,66,1.0,4.0,92,0.00,,,0.00,meteohub,2013-01-06 07:27:00,
2013-01-06 02:32:00,62.4,60.4,30.15,ENE,67,2.0,4.0,93,0.00,,,0.00,meteohub,2013-01-06 07:32:00,
2013-01-06 02:37:00,62.4,60.4,30.15,ENE,76,2.0,4.0,93,0.00,,,0.00,meteohub,2013-01-06 07:37:00,
2013-01-06 02:42:00,62.4,60.4,30.15,ENE,76,3.0,3.0,93,0.00,,,0.00,meteohub,2013-01-06 07:42:00,
2013-01-06 02:47:00,62.2,60.3,30.15,ENE,71,1.0,3.0,93,0.00,,,0.00,meteohub,2013-01-06 07:47:00,
2013-01-06 02:52:00,62.2,60.3,30.15,ENE,72,2.0,3.0,93,0.00,,,0.00,meteohub,2013-01-06 07:52:00,
2013-01-06 02:57:00,62.2,60.3,30.14,ENE,63,3.0,3.0,93,0.00,,,0.00,meteohub,2013-01-06 07:57:00,
2013-01-06 03:02:00,62.2,60.3,30.14,ENE,69,1.0,4.0,93,0.00,,,0.00,meteohub,2013-01-06 08:02:00,
2013-01-06 03:07:00,62.2,60.3,30.14,ENE,76,1.0,4.0,93,0.00,,,0.00,meteohub,2013-01-06 08:07:00,
2013-01-06 03:12:00,62.2,60.3,30.14,ENE,67,1.0,5.0,93,0.00,,,0.00,meteohub,2013-01-06 08:12:00,
2013-01-06 03:17:00,62.1,60.1,30.14,ENE,67,1.0,5.0,93,0.00,,,0.00,meteohub,2013-01-06 08:17:00,
2013-01-06 03:22:00,62.1,60.1,30.14,ENE,67,2.0,5.0,93,0.00,,,0.00,meteohub,2013-01-06 08:22:00,
2013-01-06 03:27:00,62.1,60.1,30.14,ENE,67,0.0,4.0,93,0.00,,,0.00,meteohub,2013-01-06 08:27:00,
2013-01-06 03:32:00,62.1,60.1,30.14,ENE,71,0.0,4.0,93,0.00,,,0.00,meteohub,2013-01-06 08:32:00,
2013-01-06 03:37:00,62.1,60.1,30.14,ENE,71,2.0,4.0,93,0.00,,,0.00,meteohub,2013-01-06 08:37:00,
2013-01-06 03:42:00,62.1,60.1,30.14,ENE,71,0.0,3.0,93,0.00,,,0.00,meteohub,2013-01-06 08:42:00,
2013-01-06 03:47:00,61.9,59.9,30.13,ENE,71,1.0,2.0,93,0.00,,,0.00,meteohub,2013-01-06 08:47:00,
2013-01-06 03:52:00,61.9,59.9,30.13,ENE,71,1.0,2.0,93,0.00,,,0.00,meteohub,2013-01-06 08:52:00,
2013-01-06 03:57:00,61.7,59.7,30.13,ENE,71,1.0,2.0,93,0.00,,,0.00,meteohub,2013-01-06 08:57:00,
2013-01-06 04:02:00,61.5,59.7,30.13,ENE,71,0.0,2.0,94,0.00,,,0.00,meteohub,2013-01-06 09:02:00,
2013-01-06 04:07:00,61.5,59.7,30.14,ENE,71,1.0,3.0,94,0.00,,,0.00,meteohub,2013-01-06 09:07:00,
2013-01-06 04:12:00,61.3,59.5,30.13,ENE,71,0.0,3.0,94,0.00,,,0.00,meteohub,2013-01-06 09:12:00,
2013-01-06 04:17:00,61.3,59.5,30.13,ENE,71,0.0,3.0,94,0.00,,,0.00,meteohub,2013-01-06 09:17:00,
2013-01-06 04:22:00,61.2,59.4,30.13,ENE,71,0.0,3.0,94,0.00,,,0.00,meteohub,2013-01-06 09:22:00,
2013-01-06 04:27:00,61.2,59.4,30.13,ENE,71,0.0,2.0,94,0.00,,,0.00,meteohub,2013-01-06 09:27:00,
2013-01-06 04:32:00,61.2,59.4,30.13,ENE,71,1.0,2.0,94,0.00,,,0.00,meteohub,2013-01-06 09:32:00,
2013-01-06 04:37:00,61.0,59.2,30.12,ENE,71,2.0,3.0,94,0.00,,,0.00,meteohub,2013-01-06 09:37:00,
2013-01-06 04:42:00,61.0,59.5,30.12,ENE,71,2.0,3.0,95,0.00,,,0.00,meteohub,2013-01-06 09:42:00,
2013-01-06 04:47:00,61.0,59.5,30.12,ENE,71,1.0,3.0,95,0.00,,,0.00,meteohub,2013-01-06 09:47:00,
2013-01-06 04:52:00,61.0,59.5,30.12,ENE,71,0.0,3.0,95,0.00,,,0.00,meteohub,2013-01-06 09:52:00,
2013-01-06 04:57:00,60.8,59.4,30.12,ENE,71,1.0,3.0,95,0.00,,,0.00,meteohub,2013-01-06 09:57:00,
2013-01-06 05:02:00,60.8,59.4,30.12,ENE,71,3.0,3.0,95,0.00,,,0.00,meteohub,2013-01-06 10:02:00,
2013-01-06 05:07:00,60.6,59.2,30.12,ENE,71,1.0,3.0,95,0.00,,,0.00,meteohub,2013-01-06 10:07:00,
2013-01-06 05:12:00,60.6,59.2,30.12,ENE,71,1.0,3.0,95,0.00,,,0.00,meteohub,2013-01-06 10:12:00,
2013-01-06 05:17:00,60.4,59.0,30.12,ENE,71,1.0,3.0,95,0.00,,,0.00,meteohub,2013-01-06 10:17:00,
2013-01-06 05:22:00,60.4,59.0,30.12,ENE,71,1.0,3.0,95,0.00,,,0.00,meteohub,2013-01-06 10:22:00,
2013-01-06 05:27:00,60.4,59.0,30.11,NE,56,0.0,3.0,95,0.00,,,0.00,meteohub,2013-01-06 10:27:00,
2013-01-06 05:32:00,60.4,59.4,30.11,NE,56,0.0,3.0,96,0.00,,,0.00,meteohub,2013-01-06 10:32:00,
2013-01-06 05:37:00,60.3,59.2,30.11,NE,56,1.0,3.0,96,0.00,,,0.00,meteohub,2013-01-06 10:37:00,
2013-01-06 05:42:00,60.4,59.4,30.11,NE,56,1.0,2.0,96,0.00,,,0.00,meteohub,2013-01-06 10:42:00,
2013-01-06 05:47:00,60.4,59.4,30.11,SE,126,2.0,2.0,96,0.00,,,0.00,meteohub,2013-01-06 10:47:00,
2013-01-06 05:52:00,60.4,59.4,30.11,ESE,116,2.0,4.0,96,0.00,,,0.00,meteohub,2013-01-06 10:52:00,
2013-01-06 05:57:00,60.4,59.4,30.11,ESE,116,1.0,4.0,96,0.00,,,0.00,meteohub,2013-01-06 10:57:00,
2013-01-06 06:02:00,60.6,59.5,30.11,East,88,1.0,4.0,96,0.00,,,0.00,meteohub,2013-01-06 11:02:00,
2013-01-06 06:07:00,60.6,59.5,30.12,ESE,117,0.0,3.0,96,0.00,,,0.00,meteohub,2013-01-06 11:07:00,
2013-01-06 06:12:00,60.6,59.5,30.12,ESE,115,1.0,3.0,96,0.00,,,0.00,meteohub,2013-01-06 11:12:00,
2013-01-06 06:17:00,60.6,59.5,30.12,ESE,115,1.0,3.0,96,0.00,,,0.00,meteohub,2013-01-06 11:17:00,
2013-01-06 06:22:00,60.6,59.5,30.12,ENE,69,1.0,2.0,96,0.00,,,0.00,meteohub,2013-01-06 11:22:00,
2013-01-06 06:27:00,60.6,59.7,30.12,ESE,113,0.0,2.0,97,0.00,,,0.00,meteohub,2013-01-06 11:27:00,
2013-01-06 06:32:00,60.6,59.5,30.12,ESE,113,0.0,2.0,96,0.00,,,0.00,meteohub,2013-01-06 11:32:00,
2013-01-06 06:37:00,60.6,59.5,30.12,South,179,0.0,2.0,96,0.00,,,0.00,meteohub,2013-01-06 11:37:00,
2013-01-06 06:42:00,60.6,59.7,30.12,South,174,1.0,4.0,97,0.00,,,0.00,meteohub,2013-01-06 11:42:00,
2013-01-06 06:47:00,60.8,59.9,30.12,SE,132,0.0,4.0,97,0.00,,,0.00,meteohub,2013-01-06 11:47:00,
2013-01-06 06:52:00,61.0,60.1,30.12,ESE,120,1.0,4.0,97,0.00,,,0.00,meteohub,2013-01-06 11:52:00,
2013-01-06 06:57:00,61.2,60.3,30.12,SSW,211,2.0,8.0,97,0.00,,,0.00,meteohub,2013-01-06 11:57:00,
2013-01-06 07:02:00,61.3,60.4,30.12,East,101,2.0,8.0,97,0.00,,,0.00,meteohub,2013-01-06 12:02:00,
2013-01-06 07:07:00,61.3,60.4,30.12,SE,126,0.0,6.0,97,0.00,,,0.00,meteohub,2013-01-06 12:07:00,
2013-01-06 07:12:00,61.5,60.6,30.13,East,96,2.0,6.0,97,0.00,,,0.00,meteohub,2013-01-06 12:12:00,
2013-01-06 07:17:00,61.5,60.6,30.13,ESE,106,0.0,6.0,97,0.00,,,0.00,meteohub,2013-01-06 12:17:00,
2013-01-06 07:22:00,61.5,60.6,30.13,East,96,0.0,6.0,97,0.00,,,0.00,meteohub,2013-01-06 12:22:00,
2013-01-06 07:27:00,61.5,61.0,30.13,SE,130,0.0,6.0,98,0.00,,,0.00,meteohub,2013-01-06 12:27:00,
2013-01-06 07:32:00,61.5,61.0,30.13,ESE,120,0.0,8.0,98,0.00,,,0.00,meteohub,2013-01-06 12:32:00,
2013-01-06 07:37:00,61.5,61.0,30.13,SE,136,4.0,8.0,98,0.00,,,0.00,meteohub,2013-01-06 12:37:00,
2013-01-06 07:44:00,61.9,61.3,30.13,South,180,2.0,6.0,98,0.00,,,0.00,meteohub,2013-01-06 12:44:00,
2013-01-06 07:50:00,61.9,61.3,30.13,ESE,108,3.0,5.0,98,0.00,,,0.00,meteohub,2013-01-06 12:50:00,
2013-01-06 07:56:00,62.1,61.5,30.14,SE,133,2.0,7.0,98,0.00,,,0.00,meteohub,2013-01-06 12:56:00,
2013-01-06 08:02:00,62.1,61.5,30.14,ENE,71,4.0,7.0,98,0.00,,,0.00,meteohub,2013-01-06 13:02:00,
2013-01-06 08:07:00,62.2,61.7,30.14,SE,137,1.0,7.0,98,0.00,,,0.00,meteohub,2013-01-06 13:07:00,
2013-01-06 08:12:00,62.2,61.7,30.14,SE,130,1.0,7.0,98,0.00,,,0.00,meteohub,2013-01-06 13:12:00,
2013-01-06 08:17:00,62.4,61.9,30.14,SE,135,4.0,7.0,98,0.00,,,0.00,meteohub,2013-01-06 13:17:00,
2013-01-06 08:22:00,62.6,62.1,30.14,ESE,111,0.0,7.0,98,0.00,,,0.00,meteohub,2013-01-06 13:22:00,
2013-01-06 08:27:00,62.8,62.2,30.14,ESE,113,3.0,4.0,98,0.00,,,0.00,meteohub,2013-01-06 13:27:00,
2013-01-06 08:32:00,62.8,62.2,30.14,North,11,0.0,5.0,98,0.00,,,0.00,meteohub,2013-01-06 13:32:00,
2013-01-06 08:37:00,62.8,62.2,30.14,ESE,109,2.0,5.0,98,0.00,,,0.00,meteohub,2013-01-06 13:37:00,
2013-01-06 08:42:00,63.0,62.4,30.14,East,93,1.0,5.0,98,0.00,,,0.00,meteohub,2013-01-06 13:42:00,
2013-01-06 08:47:00,63.0,62.4,30.14,ENE,67,3.0,5.0,98,0.00,,,0.00,meteohub,2013-01-06 13:47:00,
2013-01-06 08:52:00,63.1,62.6,30.14,SE,126,2.0,5.0,98,0.00,,,0.00,meteohub,2013-01-06 13:52:00,
2013-01-06 08:57:00,63.1,62.6,30.15,SE,126,1.0,5.0,98,0.00,,,0.00,meteohub,2013-01-06 13:57:00,
2013-01-06 09:02:00,63.1,62.6,30.15,SE,130,3.0,4.0,98,0.00,,,0.00,meteohub,2013-01-06 14:02:00,
2013-01-06 09:07:00,63.3,62.8,30.15,ESE,123,0.0,5.0,98,0.00,,,0.00,meteohub,2013-01-06 14:07:00,
2013-01-06 09:12:00,63.3,62.8,30.15,SE,144,1.0,5.0,98,0.00,,,0.00,meteohub,2013-01-06 14:12:00,
2013-01-06 09:17:00,63.5,63.1,30.15,SE,126,1.0,5.0,99,0.00,,,0.00,meteohub,2013-01-06 14:17:00,
2013-01-06 09:22:00,63.5,63.1,30.15,SE,136,3.0,5.0,99,0.00,,,0.00,meteohub,2013-01-06 14:22:00,
2013-01-06 09:27:00,63.7,63.3,30.15,East,89,1.0,5.0,99,0.00,,,0.00,meteohub,2013-01-06 14:27:00,
2013-01-06 09:32:00,63.9,63.3,30.16,East,88,1.0,4.0,98,0.00,,,0.00,meteohub,2013-01-06 14:32:00,
2013-01-06 09:37:00,63.9,63.3,30.16,ESE,120,0.0,4.0,98,0.00,,,0.00,meteohub,2013-01-06 14:37:00,
2013-01-06 09:42:00,63.9,63.3,30.16,SSE,156,2.0,3.0,98,0.00,,,0.00,meteohub,2013-01-06 14:42:00,
2013-01-06 09:47:00,63.9,63.3,30.16,ESE,112,0.0,4.0,98,0.00,,,0.00,meteohub,2013-01-06 14:47:00,
2013-01-06 09:52:00,64.0,63.5,30.16,SE,130,0.0,4.0,98,0.00,,,0.00,meteohub,2013-01-06 14:52:00,
2013-01-06 09:57:00,64.0,63.7,30.16,SSE,149,0.0,4.0,99,0.00,,,0.00,meteohub,2013-01-06 14:57:00,
2013-01-06 10:02:00,64.2,63.9,30.16,East,79,2.0,4.0,99,0.00,,,0.00,meteohub,2013-01-06 15:02:00,
2013-01-06 10:07:00,64.0,63.7,30.17,ESE,123,2.0,4.0,99,0.00,,,0.00,meteohub,2013-01-06 15:07:00,
2013-01-06 10:12:00,64.2,63.9,30.17,East,98,1.0,3.0,99,0.00,,,0.00,meteohub,2013-01-06 15:12:00,
2013-01-06 10:17:00,64.2,63.9,30.17,ENE,68,0.0,3.0,99,0.00,,,0.00,meteohub,2013-01-06 15:17:00,
2013-01-06 10:22:00,64.6,64.2,30.17,SSE,147,0.0,5.0,99,0.00,,,0.00,meteohub,2013-01-06 15:22:00,
2013-01-06 10:27:00,64.8,64.4,30.17,SSE,149,1.0,5.0,99,0.00,,,0.00,meteohub,2013-01-06 15:27:00,
2013-01-06 10:32:00,64.8,64.4,30.17,ESE,118,4.0,5.0,99,0.00,,,0.00,meteohub,2013-01-06 15:32:00,
2013-01-06 10:37:00,64.6,64.0,30.17,East,95,2.0,6.0,98,0.00,,,0.00,meteohub,2013-01-06 15:37:00,
2013-01-06 10:42:00,64.8,64.2,30.16,SSE,152,1.0,7.0,98,0.00,,,0.00,meteohub,2013-01-06 15:42:00,
2013-01-06 10:47:00,64.6,64.0,30.16,SE,142,1.0,7.0,98,0.00,,,0.00,meteohub,2013-01-06 15:47:00,
2013-01-06 10:52:00,64.9,64.6,30.16,SSE,155,1.0,5.0,99,0.00,,,0.00,meteohub,2013-01-06 15:52:00,
2013-01-06 10:57:00,65.1,64.8,30.15,SSE,149,0.0,5.0,99,0.00,,,0.00,meteohub,2013-01-06 15:57:00,
2013-01-06 11:02:00,65.3,64.8,30.15,SE,138,0.0,5.0,98,0.00,,,0.00,meteohub,2013-01-06 16:02:00,
2013-01-06 11:07:00,65.1,64.6,30.15,SE,136,3.0,6.0,98,0.00,,,0.00,meteohub,2013-01-06 16:07:00,
2013-01-06 11:12:00,65.3,64.8,30.14,SE,135,4.0,7.0,98,0.00,,,0.00,meteohub,2013-01-06 16:12:00,
2013-01-06 11:17:00,65.5,64.9,30.14,SE,138,1.0,7.0,98,0.00,,,0.00,meteohub,2013-01-06 16:17:00,
2013-01-06 11:22:00,65.7,65.1,30.14,ESE,123,3.0,7.0,98,0.00,,,0.00,meteohub,2013-01-06 16:22:00,
2013-01-06 11:27:00,65.8,65.3,30.14,East,85,3.0,7.0,98,0.00,,,0.00,meteohub,2013-01-06 16:27:00,
2013-01-06 11:32:00,66.0,65.5,30.14,ESE,113,1.0,7.0,98,0.00,,,0.00,meteohub,2013-01-06 16:32:00,
2013-01-06 11:37:00,66.4,65.5,30.14,ENE,78,5.0,8.0,97,0.00,,,0.00,meteohub,2013-01-06 16:37:00,
2013-01-06 11:42:00,66.7,65.8,30.13,ESE,113,1.0,8.0,97,0.00,,,0.00,meteohub,2013-01-06 16:42:00,
2013-01-06 11:47:00,67.5,66.2,30.13,East,89,1.0,8.0,96,0.00,,,0.00,meteohub,2013-01-06 16:47:00,
2013-01-06 11:52:00,67.8,66.0,30.13,East,84,2.0,8.0,94,0.00,,,0.00,meteohub,2013-01-06 16:52:00,
2013-01-06 11:57:00,67.6,65.5,30.12,East,89,2.0,8.0,93,0.00,,,0.00,meteohub,2013-01-06 16:57:00,
2013-01-06 12:02:00,68.0,66.2,30.12,SE,143,0.0,8.0,94,0.00,,,0.00,meteohub,2013-01-06 17:02:00,
2013-01-06 12:07:00,68.5,66.4,30.12,ENE,65,1.0,6.0,93,0.00,,,0.00,meteohub,2013-01-06 17:07:00,
2013-01-06 12:12:00,69.4,67.1,30.12,ENE,72,0.0,5.0,92,0.00,,,0.00,meteohub,2013-01-06 17:12:00,
2013-01-06 12:17:00,70.0,66.6,30.12,SE,146,3.0,3.0,89,0.00,,,0.00,meteohub,2013-01-06 17:17:00,
2013-01-06 12:22:00,70.2,66.7,30.12,SE,134,2.0,5.0,89,0.00,,,0.00,meteohub,2013-01-06 17:22:00,
2013-01-06 12:27:00,70.7,66.9,30.11,ESE,104,4.0,5.0,88,0.00,,,0.00,meteohub,2013-01-06 17:27:00,
2013-01-06 12:32:00,71.2,67.5,30.11,ESE,120,2.0,5.0,88,0.00,,,0.00,meteohub,2013-01-06 17:32:00,
2013-01-06 12:37:00,71.8,67.3,30.10,SE,144,4.0,6.0,86,0.00,,,0.00,meteohub,2013-01-06 17:37:00,
2013-01-06 12:42:00,72.0,67.3,30.10,SE,136,1.0,6.0,85,0.00,,,0.00,meteohub,2013-01-06 17:42:00,
2013-01-06 12:47:00,72.1,67.6,30.09,ENE,74,4.0,6.0,86,0.00,,,0.00,meteohub,2013-01-06 17:47:00,
2013-01-06 12:52:00,72.3,67.6,30.09,ENE,59,3.0,7.0,85,0.00,,,0.00,meteohub,2013-01-06 17:52:00,
2013-01-06 12:57:00,72.9,68.0,30.09,SE,134,2.0,7.0,85,0.00,,,0.00,meteohub,2013-01-06 17:57:00,
2013-01-06 13:02:00,73.0,68.0,30.09,SE,132,4.0,7.0,84,0.00,,,0.00,meteohub,2013-01-06 18:02:00,
2013-01-06 13:07:00,73.6,68.4,30.09,ENE,61,2.0,6.0,84,0.00,,,0.00,meteohub,2013-01-06 18:07:00,
2013-01-06 13:12:00,73.9,68.7,30.08,SE,134,1.0,6.0,84,0.00,,,0.00,meteohub,2013-01-06 18:12:00,
2013-01-06 13:17:00,74.5,68.5,30.08,ENE,73,1.0,6.0,82,0.00,,,0.00,meteohub,2013-01-06 18:17:00,
2013-01-06 13:22:00,74.8,68.9,30.08,SSE,147,3.0,6.0,82,0.00,,,0.00,meteohub,2013-01-06 18:22:00,
2013-01-06 13:27:00,75.0,68.7,30.07,SE,129,4.0,7.0,81,0.00,,,0.00,meteohub,2013-01-06 18:27:00,
2013-01-06 13:32:00,75.6,69.3,30.07,SE,137,1.0,7.0,81,0.00,,,0.00,meteohub,2013-01-06 18:32:00,
2013-01-06 13:37:00,76.3,69.3,30.07,SE,134,2.0,7.0,79,0.00,,,0.00,meteohub,2013-01-06 18:37:00,
2013-01-06 13:43:00,76.5,69.1,30.07,South,186,2.0,5.0,78,0.00,,,0.00,meteohub,2013-01-06 18:43:00,
2013-01-06 13:49:00,76.5,69.1,30.06,SSE,163,0.0,5.0,78,0.00,,,0.00,meteohub,2013-01-06 18:49:00,
2013-01-06 13:55:00,75.9,68.9,30.06,East,81,1.0,5.0,79,0.00,,,0.00,meteohub,2013-01-06 18:55:00,
2013-01-06 14:01:00,75.6,68.5,30.06,ESE,111,0.0,5.0,79,0.00,,,0.00,meteohub,2013-01-06 19:01:00,
2013-01-06 14:07:00,76.1,69.1,30.06,ESE,111,1.0,5.0,79,0.00,,,0.00,meteohub,2013-01-06 19:07:00,
2013-01-06 14:12:00,76.6,69.3,30.06,SSE,155,0.0,3.0,78,0.00,,,0.00,meteohub,2013-01-06 19:12:00,
2013-01-06 14:17:00,77.5,69.8,30.06,SE,146,2.0,3.0,77,0.00,,,0.00,meteohub,2013-01-06 19:17:00,
2013-01-06 14:22:00,78.1,70.0,30.06,SE,144,1.0,3.0,76,0.00,,,0.00,meteohub,2013-01-06 19:22:00,
2013-01-06 14:27:00,78.8,69.8,30.06,WSW,250,3.0,3.0,74,0.00,,,0.00,meteohub,2013-01-06 19:27:00,
2013-01-06 14:32:00,79.3,69.4,30.06,WSW,243,2.0,3.0,72,0.00,,,0.00,meteohub,2013-01-06 19:32:00,
2013-01-06 14:37:00,79.3,68.7,30.06,NW,314,1.0,5.0,70,0.00,,,0.00,meteohub,2013-01-06 19:37:00,
2013-01-06 14:47:00,75.7,66.9,30.06,WNW,298,1.0,5.0,74,0.00,,,0.00,meteohub,2013-01-06 19:47:00,
2013-01-06 14:52:00,75.0,66.9,30.06,WSW,250,4.0,6.0,76,0.00,,,0.00,meteohub,2013-01-06 19:52:00,
2013-01-06 14:59:00,74.5,66.7,30.06,WSW,242,3.0,6.0,77,0.00,,,0.00,meteohub,2013-01-06 19:59:00,
2013-01-06 15:06:00,74.5,66.7,30.06,West,263,2.0,6.0,77,0.00,,,0.00,meteohub,2013-01-06 20:06:00,
2013-01-06 15:12:00,74.1,66.4,30.06,WNW,286,1.0,5.0,77,0.00,,,0.00,meteohub,2013-01-06 20:12:00,
2013-01-06 15:15:00,74.1,66.0,30.06,West,279,1.0,5.0,76,0.00,,,0.00,meteohub,2013-01-06 20:15:00,
2013-01-06 15:21:00,73.9,66.2,30.06,West,279,0.0,5.0,77,0.00,,,0.00,meteohub,2013-01-06 20:21:00,
2013-01-06 15:27:00,73.6,66.4,30.06,NW,319,1.0,4.0,78,0.00,,,0.00,meteohub,2013-01-06 20:27:00,
2013-01-06 15:32:00,73.6,66.4,30.06,NW,319,2.0,3.0,78,0.00,,,0.00,meteohub,2013-01-06 20:32:00,
2013-01-06 15:37:00,73.6,66.4,30.06,NW,319,1.0,3.0,78,0.00,,,0.00,meteohub,2013-01-06 20:37:00,
2013-01-06 15:42:00,73.4,66.2,30.06,WNW,282,2.0,3.0,78,0.00,,,0.00,meteohub,2013-01-06 20:42:00,
2013-01-06 15:48:00,72.9,66.0,30.07,WNW,282,1.0,4.0,79,0.00,,,0.00,meteohub,2013-01-06 20:48:00,
2013-01-06 15:54:00,72.1,65.7,30.07,West,269,0.0,4.0,80,0.00,,,0.00,meteohub,2013-01-06 20:54:00,
2013-01-06 16:00:00,71.2,65.1,30.07,WNW,300,1.0,4.0,81,0.00,,,0.00,meteohub,2013-01-06 21:00:00,
2013-01-06 16:06:00,70.5,64.8,30.07,West,279,1.0,4.0,82,0.00,,,0.00,meteohub,2013-01-06 21:06:00,
2013-01-06 16:12:00,70.3,64.9,30.07,WNW,286,1.0,4.0,83,0.00,,,0.00,meteohub,2013-01-06 21:12:00,
2013-01-06 16:17:00,69.6,64.2,30.07,WNW,288,2.0,4.0,83,0.00,,,0.00,meteohub,2013-01-06 21:17:00,
2013-01-06 16:22:00,69.1,64.0,30.08,NW,309,2.0,4.0,84,0.00,,,0.00,meteohub,2013-01-06 21:22:00,
2013-01-06 16:27:00,68.4,63.7,30.08,WNW,299,2.0,5.0,85,0.00,,,0.00,meteohub,2013-01-06 21:27:00,
2013-01-06 16:32:00,67.5,63.1,30.08,NW,306,2.0,8.0,86,0.00,,,0.00,meteohub,2013-01-06 21:32:00,
2013-01-06 16:39:00,66.7,63.1,30.08,West,276,2.0,8.0,88,0.00,,,0.00,meteohub,2013-01-06 21:39:00,
2013-01-06 16:45:00,66.4,63.0,30.09,WNW,296,1.0,5.0,89,0.00,,,0.00,meteohub,2013-01-06 21:45:00,
2013-01-06 16:51:00,66.0,63.0,30.08,NNW,332,2.0,5.0,90,0.00,,,0.00,meteohub,2013-01-06 21:51:00,
2013-01-06 16:57:00,65.8,62.8,30.08,NNW,327,3.0,5.0,90,0.00,,,0.00,meteohub,2013-01-06 21:57:00,
2013-01-06 17:02:00,65.8,63.1,30.08,NNE,28,1.0,5.0,91,0.00,,,0.00,meteohub,2013-01-06 22:02:00,
2013-01-06 17:07:00,65.8,63.1,30.08,North,9,3.0,4.0,91,0.00,,,0.00,meteohub,2013-01-06 22:07:00,
2013-01-06 17:12:00,65.8,63.1,30.08,NNW,336,0.0,4.0,91,0.00,,,0.00,meteohub,2013-01-06 22:12:00,
2013-01-06 17:17:00,65.7,63.0,30.08,NW,323,1.0,3.0,91,0.00,,,0.00,meteohub,2013-01-06 22:17:00,
2013-01-06 17:22:00,65.5,62.8,30.09,SSW,213,3.0,4.0,91,0.00,,,0.00,meteohub,2013-01-06 22:22:00,
2013-01-06 17:27:00,65.3,62.6,30.09,NW,321,2.0,5.0,91,0.00,,,0.00,meteohub,2013-01-06 22:27:00,
2013-01-06 17:32:00,65.1,62.8,30.09,NW,311,1.0,5.0,92,0.00,,,0.00,meteohub,2013-01-06 22:32:00,
2013-01-06 17:37:00,64.9,62.6,30.09,NNW,336,0.0,5.0,92,0.00,,,0.00,meteohub,2013-01-06 22:37:00,
2013-01-06 17:42:00,64.9,62.6,30.09,North,5,3.0,4.0,92,0.00,,,0.00,meteohub,2013-01-06 22:42:00,
2013-01-06 17:47:00,64.8,62.6,30.09,NW,323,0.0,4.0,93,0.00,,,0.00,meteohub,2013-01-06 22:47:00,
2013-01-06 17:52:00,64.8,62.6,30.09,WNW,286,2.0,4.0,93,0.00,,,0.00,meteohub,2013-01-06 22:52:00,
2013-01-06 17:57:00,64.8,62.6,30.09,NW,309,0.0,4.0,93,0.00,,,0.00,meteohub,2013-01-06 22:57:00,
2013-01-06 18:02:00,64.8,63.0,30.09,NW,306,1.0,4.0,94,0.00,,,0.00,meteohub,2013-01-06 23:02:00,
2013-01-06 18:07:00,64.8,63.0,30.09,NW,313,1.0,4.0,94,0.00,,,0.00,meteohub,2013-01-06 23:07:00,
2013-01-06 18:12:00,64.8,63.0,30.09,NW,305,1.0,4.0,94,0.00,,,0.00,meteohub,2013-01-06 23:12:00,
2013-01-06 18:17:00,64.9,63.1,30.09,NW,305,1.0,4.0,94,0.00,,,0.00,meteohub,2013-01-06 23:17:00,
2013-01-06 18:22:00,64.9,63.1,30.09,NW,305,1.0,3.0,94,0.00,,,0.00,meteohub,2013-01-06 23:22:00,
2013-01-06 18:27:00,64.9,63.1,30.09,NW,308,1.0,2.0,94,0.00,,,0.00,meteohub,2013-01-06 23:27:00,
2013-01-06 18:32:00,64.9,63.1,30.09,NW,308,0.0,3.0,94,0.00,,,0.00,meteohub,2013-01-06 23:32:00,
2013-01-06 18:37:00,65.1,63.7,30.09,NW,308,1.0,3.0,95,0.00,,,0.00,meteohub,2013-01-06 23:37:00,
2013-01-06 18:42:00,65.1,63.7,30.09,NW,308,0.0,3.0,95,0.00,,,0.00,meteohub,2013-01-06 23:42:00,
2013-01-06 18:47:00,65.3,63.9,30.09,NW,308,1.0,3.0,95,0.00,,,0.00,meteohub,2013-01-06 23:47:00,
2013-01-06 18:52:00,65.5,64.0,30.08,NW,308,1.0,3.0,95,0.00,,,0.00,meteohub,2013-01-06 23:52:00,
2013-01-06 18:57:00,65.5,64.0,30.08,NW,308,0.0,2.0,95,0.00,,,0.00,meteohub,2013-01-06 23:57:00,
2013-01-06 19:02:00,65.5,64.0,30.09,NW,308,0.0,2.0,95,0.00,,,0.00,meteohub,2013-01-07 00:02:00,
2013-01-06 19:07:00,65.5,64.0,30.09,NW,308,0.0,1.0,95,0.00,,,0.00,meteohub,2013-01-07 00:07:00,
2013-01-06 19:12:00,65.5,64.0,30.08,NW,308,0.0,2.0,95,0.00,,,0.00,meteohub,2013-01-07 00:12:00,
2013-01-06 19:17:00,65.3,63.9,30.08,NW,308,0.0,2.0,95,0.00,,,0.00,meteohub,2013-01-07 00:17:00,
2013-01-06 19:22:00,65.3,63.9,30.08,NW,308,0.0,2.0,95,0.00,,,0.00,meteohub,2013-01-07 00:22:00,
2013-01-06 19:27:00,65.1,63.7,30.08,NW,308,0.0,1.0,95,0.00,,,0.00,meteohub,2013-01-07 00:27:00,
2013-01-06 19:32:00,65.1,64.0,30.08,NW,308,0.0,1.0,96,0.00,,,0.00,meteohub,2013-01-07 00:32:00,
2013-01-06 19:37:00,65.1,64.0,30.08,NW,308,0.0,2.0,96,0.00,,,0.00,meteohub,2013-01-07 00:37:00,
2013-01-06 19:42:00,65.1,64.0,30.08,NW,308,0.0,2.0,96,0.00,,,0.00,meteohub,2013-01-07 00:42:00,
2013-01-06 19:47:00,65.1,64.0,30.08,NW,308,0.0,2.0,96,0.00,,,0.00,meteohub,2013-01-07 00:47:00,
2013-01-06 19:52:00,65.1,64.0,30.07,NW,308,0.0,1.0,96,0.00,,,0.00,meteohub,2013-01-07 00:52:00,
2013-01-06 19:58:00,64.9,63.9,30.08,NW,308,0.0,1.0,96,0.00,,,0.00,meteohub,2013-01-07 00:58:00,
2013-01-06 20:04:00,64.9,63.9,30.09,NW,308,0.0,0.0,96,0.00,,,0.00,meteohub,2013-01-07 01:04:00,
2013-01-06 20:10:00,64.9,63.9,30.08,NW,308,0.0,1.0,96,0.00,,,0.00,meteohub,2013-01-07 01:10:00,
2013-01-06 20:16:00,64.9,63.9,30.08,NW,308,0.0,1.0,96,0.00,,,0.00,meteohub,2013-01-07 01:16:00,
2013-01-06 20:22:00,64.9,63.9,30.09,NW,308,1.0,2.0,96,0.00,,,0.00,meteohub,2013-01-07 01:22:00,
2013-01-06 20:27:00,64.9,64.0,30.09,NW,308,0.0,2.0,97,0.00,,,0.00,meteohub,2013-01-07 01:27:00,
2013-01-06 20:32:00,64.9,64.0,30.09,NW,308,0.0,2.0,97,0.00,,,0.00,meteohub,2013-01-07 01:32:00,
2013-01-06 20:37:00,65.1,64.2,30.09,NW,308,0.0,2.0,97,0.00,,,0.00,meteohub,2013-01-07 01:37:00,
2013-01-06 20:42:00,65.1,64.2,30.10,NW,308,0.0,2.0,97,0.00,,,0.00,meteohub,2013-01-07 01:42:00,
2013-01-06 20:47:00,64.9,63.9,30.09,NW,308,0.0,1.0,96,0.00,,,0.00,meteohub,2013-01-07 01:47:00,
2013-01-06 20:52:00,64.9,63.9,30.10,NW,308,0.0,2.0,96,0.00,,,0.00,meteohub,2013-01-07 01:52:00,
2013-01-06 20:57:00,64.9,64.0,30.10,NW,308,1.0,2.0,97,0.00,,,0.00,meteohub,2013-01-07 01:57:00,
2013-01-06 21:02:00,64.9,64.0,30.10,NW,312,0.0,2.0,97,0.00,,,0.00,meteohub,2013-01-07 02:02:00,
2013-01-06 21:07:00,64.9,64.0,30.11,NW,312,0.0,3.0,97,0.00,,,0.00,meteohub,2013-01-07 02:07:00,
2013-01-06 21:12:00,64.9,64.0,30.10,NW,312,1.0,3.0,97,0.00,,,0.00,meteohub,2013-01-07 02:12:00,
2013-01-06 21:17:00,64.9,64.0,30.10,NW,313,2.0,2.0,97,0.00,,,0.00,meteohub,2013-01-07 02:17:00,
2013-01-06 21:22:00,65.1,64.2,30.11,NE,43,1.0,3.0,97,0.00,,,0.00,meteohub,2013-01-07 02:22:00,
2013-01-06 21:27:00,65.1,64.2,30.11,NNW,332,2.0,3.0,97,0.00,,,0.00,meteohub,2013-01-07 02:27:00,
2013-01-06 21:32:00,65.3,64.4,30.11,North,0,0.0,3.0,97,0.00,,,0.00,meteohub,2013-01-07 02:32:00,
2013-01-06 21:37:00,65.5,64.6,30.11,North,0,2.0,3.0,97,0.00,,,0.00,meteohub,2013-01-07 02:37:00,
2013-01-06 21:42:00,65.5,64.6,30.12,ENE,61,0.0,3.0,97,0.00,,,0.00,meteohub,2013-01-07 02:42:00,
2013-01-06 21:47:00,65.1,64.2,30.12,NE,43,2.0,5.0,97,0.00,,,0.00,meteohub,2013-01-07 02:47:00,
2013-01-06 21:52:00,65.1,64.2,30.12,NE,55,0.0,5.0,97,0.00,,,0.00,meteohub,2013-01-07 02:52:00,
2013-01-06 21:57:00,64.9,63.9,30.12,NE,53,1.0,5.0,96,0.00,,,0.00,meteohub,2013-01-07 02:57:00,
2013-01-06 22:02:00,64.8,63.7,30.12,NNE,27,2.0,5.0,96,0.00,,,0.00,meteohub,2013-01-07 03:02:00,
2013-01-06 22:07:00,64.8,63.7,30.12,NE,55,3.0,4.0,96,0.00,,,0.00,meteohub,2013-01-07 03:07:00,
2013-01-06 22:12:00,64.6,63.5,30.12,ENE,75,3.0,5.0,96,0.00,,,0.00,meteohub,2013-01-07 03:12:00,
2013-01-06 22:17:00,64.4,63.3,30.13,NNE,30,2.0,5.0,96,0.00,,,0.00,meteohub,2013-01-07 03:17:00,
2013-01-06 22:22:00,64.4,63.3,30.13,East,79,2.0,5.0,96,0.00,,,0.00,meteohub,2013-01-07 03:22:00,
2013-01-06 22:27:00,64.6,63.5,30.12,ENE,67,2.0,5.0,96,0.00,,,0.00,meteohub,2013-01-07 03:27:00,
2013-01-06 22:32:00,64.4,63.3,30.12,ENE,67,1.0,4.0,96,0.00,,,0.00,meteohub,2013-01-07 03:32:00,
2013-01-06 22:37:00,64.4,63.3,30.12,NE,47,1.0,4.0,96,0.00,,,0.00,meteohub,2013-01-07 03:37:00,
2013-01-06 22:42:00,64.4,63.3,30.12,NNE,32,1.0,5.0,96,0.01,,,0.01,meteohub,2013-01-07 03:42:00,
2013-01-06 22:47:00,64.2,63.1,30.12,NE,38,1.0,5.0,96,0.01,,,0.01,meteohub,2013-01-07 03:47:00,
2013-01-06 22:52:00,64.2,63.1,30.12,NE,36,2.0,5.0,96,0.01,,,0.01,meteohub,2013-01-07 03:52:00,
2013-01-06 22:57:00,64.2,63.3,30.12,NNE,33,4.0,4.0,97,0.01,,,0.01,meteohub,2013-01-07 03:57:00,
2013-01-06 23:02:00,64.2,63.3,30.11,NNE,22,2.0,4.0,97,0.01,,,0.01,meteohub,2013-01-07 04:02:00,
2013-01-06 23:07:00,64.2,63.3,30.11,ENE,65,4.0,4.0,97,0.01,,,0.01,meteohub,2013-01-07 04:07:00,
2013-01-06 23:12:00,64.2,63.3,30.11,NNW,338,2.0,9.0,97,0.01,,,0.01,meteohub,2013-01-07 04:12:00,
2013-01-06 23:17:00,64.2,63.3,30.11,NNE,30,2.0,9.0,97,0.01,,,0.01,meteohub,2013-01-07 04:17:00,
2013-01-06 23:22:00,64.2,63.3,30.11,North,9,2.0,9.0,97,0.01,,,0.01,meteohub,2013-01-07 04:22:00,
2013-01-06 23:27:00,64.2,63.3,30.11,NNE,26,4.0,4.0,97,0.01,,,0.01,meteohub,2013-01-07 04:27:00,
2013-01-06 23:32:00,64.2,63.3,30.10,NNE,13,1.0,6.0,97,0.01,,,0.01,meteohub,2013-01-07 04:32:00,
2013-01-06 23:37:00,64.2,63.3,30.11,North,351,1.0,6.0,97,0.00,,,0.01,meteohub,2013-01-07 04:37:00,
2013-01-06 23:42:00,64.2,63.3,30.11,NE,46,0.0,6.0,97,0.00,,,0.01,meteohub,2013-01-07 04:42:00,
2013-01-06 23:47:00,64.2,63.3,30.11,North,5,1.0,5.0,97,0.00,,,0.01,meteohub,2013-01-07 04:47:00,
2013-01-06 23:52:00,64.2,63.3,30.11,NW,316,1.0,6.0,97,0.00,,,0.01,meteohub,2013-01-07 04:52:00,
2013-01-06 23:57:00,64.2,63.3,30.11,East,81,1.0,6.0,97,0.00,,,0.01,meteohub,2013-01-07 04:57:00,